sensor_id;sensor_type;location;lat;lon;timestamp;temperature;humidity
18287;DHT22;9269;50.838;12.094;2022-07-23T00:01:09;26.30;25.80
18287;DHT22;9269;50.838;12.094;2022-07-23T00:03:38;26.20;25.90
18287;DHT22;9269;50.838;12.094;2022-07-23T00:06:07;26.20;26.00
18287;DHT22;9269;50.838;12.094;2022-07-23T00:08:36;26.20;25.90
18287;DHT22;9269;50.838;12.094;2022-07-23T00:11:04;26.20;26.00
18287;DHT22;9269;50.838;12.094;2022-07-23T00:13:33;26.20;26.00
18287;DHT22;9269;50.838;12.094;2022-07-23T00:16:03;26.10;26.30
18287;DHT22;9269;50.838;12.094;2022-07-23T00:18:31;26.10;25.90
18287;DHT22;9269;50.838;12.094;2022-07-23T00:21:00;26.20;26.10
18287;DHT22;9269;50.838;12.094;2022-07-23T00:23:28;26.10;26.50
18287;DHT22;9269;50.838;12.094;2022-07-23T00:25:58;26.10;26.50
18287;DHT22;9269;50.838;12.094;2022-07-23T00:28:26;26.10;26.30
18287;DHT22;9269;50.838;12.094;2022-07-23T00:30:55;26.10;26.30
18287;DHT22;9269;50.838;12.094;2022-07-23T00:33:24;26.00;26.30
18287;DHT22;9269;50.838;12.094;2022-07-23T00:35:53;26.10;26.40
18287;DHT22;9269;50.838;12.094;2022-07-23T00:38:21;26.10;26.30
18287;DHT22;9269;50.838;12.094;2022-07-23T00:40:50;26.10;26.20
18287;DHT22;9269;50.838;12.094;2022-07-23T00:43:20;26.10;26.20
18287;DHT22;9269;50.838;12.094;2022-07-23T00:45:49;26.00;26.90
18287;DHT22;9269;50.838;12.094;2022-07-23T00:48:17;26.00;26.70
18287;DHT22;9269;50.838;12.094;2022-07-23T00:50:47;26.00;27.10
18287;DHT22;9269;50.838;12.094;2022-07-23T00:53:15;26.00;27.30
18287;DHT22;9269;50.838;12.094;2022-07-23T00:55:44;26.00;27.90
18287;DHT22;9269;50.838;12.094;2022-07-23T00:58:12;26.00;27.80
18287;DHT22;9269;50.838;12.094;2022-07-23T01:00:41;26.00;27.70
18287;DHT22;9269;50.838;12.094;2022-07-23T01:03:10;26.00;27.30
18287;DHT22;9269;50.838;12.094;2022-07-23T01:05:38;25.90;26.80
18287;DHT22;9269;50.838;12.094;2022-07-23T01:08:08;25.90;27.10
18287;DHT22;9269;50.838;12.094;2022-07-23T01:10:37;25.90;27.10
18287;DHT22;9269;50.838;12.094;2022-07-23T01:13:06;25.80;27.20
18287;DHT22;9269;50.838;12.094;2022-07-23T01:15:36;25.80;27.00
18287;DHT22;9269;50.838;12.094;2022-07-23T01:18:06;25.90;26.80
18287;DHT22;9269;50.838;12.094;2022-07-23T01:20:35;25.80;26.70
18287;DHT22;9269;50.838;12.094;2022-07-23T01:23:04;25.80;27.20
18287;DHT22;9269;50.838;12.094;2022-07-23T01:25:33;25.70;27.00
18287;DHT22;9269;50.838;12.094;2022-07-23T01:28:01;25.80;27.30
18287;DHT22;9269;50.838;12.094;2022-07-23T01:30:30;25.80;27.10
18287;DHT22;9269;50.838;12.094;2022-07-23T01:32:58;25.70;27.10
18287;DHT22;9269;50.838;12.094;2022-07-23T01:35:26;25.80;27.00
18287;DHT22;9269;50.838;12.094;2022-07-23T01:37:55;25.80;27.10
18287;DHT22;9269;50.838;12.094;2022-07-23T01:40:25;25.80;27.40
18287;DHT22;9269;50.838;12.094;2022-07-23T01:42:53;25.70;27.60
18287;DHT22;9269;50.838;12.094;2022-07-23T01:45:22;25.70;28.20
18287;DHT22;9269;50.838;12.094;2022-07-23T01:47:51;25.70;28.00
18287;DHT22;9269;50.838;12.094;2022-07-23T01:50:19;25.70;28.10
18287;DHT22;9269;50.838;12.094;2022-07-23T01:52:48;25.70;28.00
18287;DHT22;9269;50.838;12.094;2022-07-23T01:55:16;25.70;28.10
18287;DHT22;9269;50.838;12.094;2022-07-23T01:57:47;25.70;28.00
18287;DHT22;9269;50.838;12.094;2022-07-23T02:00:15;25.70;28.10
18287;DHT22;9269;50.838;12.094;2022-07-23T02:02:44;25.70;28.20
18287;DHT22;9269;50.838;12.094;2022-07-23T02:05:12;25.70;29.10
18287;DHT22;9269;50.838;12.094;2022-07-23T02:07:42;25.60;28.70
18287;DHT22;9269;50.838;12.094;2022-07-23T02:10:10;25.70;28.30
18287;DHT22;9269;50.838;12.094;2022-07-23T02:12:38;25.70;28.00
18287;DHT22;9269;50.838;12.094;2022-07-23T02:15:08;25.70;28.40
18287;DHT22;9269;50.838;12.094;2022-07-23T02:17:40;25.60;28.00
18287;DHT22;9269;50.838;12.094;2022-07-23T02:20:10;25.60;27.70
18287;DHT22;9269;50.838;12.094;2022-07-23T02:22:39;25.60;28.20
18287;DHT22;9269;50.838;12.094;2022-07-23T02:25:08;25.60;28.90
18287;DHT22;9269;50.838;12.094;2022-07-23T02:27:37;25.60;28.40
18287;DHT22;9269;50.838;12.094;2022-07-23T02:30:07;25.50;28.60
18287;DHT22;9269;50.838;12.094;2022-07-23T02:32:36;25.60;29.20
18287;DHT22;9269;50.838;12.094;2022-07-23T02:35:07;25.60;29.20
18287;DHT22;9269;50.838;12.094;2022-07-23T02:37:35;25.60;29.00
18287;DHT22;9269;50.838;12.094;2022-07-23T02:40:04;25.60;29.10
18287;DHT22;9269;50.838;12.094;2022-07-23T02:42:33;25.60;29.10
18287;DHT22;9269;50.838;12.094;2022-07-23T02:45:01;25.50;29.00
18287;DHT22;9269;50.838;12.094;2022-07-23T02:47:31;25.50;29.40
18287;DHT22;9269;50.838;12.094;2022-07-23T02:49:59;25.60;29.80
18287;DHT22;9269;50.838;12.094;2022-07-23T02:52:28;25.50;29.50
18287;DHT22;9269;50.838;12.094;2022-07-23T02:54:56;25.40;29.80
18287;DHT22;9269;50.838;12.094;2022-07-23T02:57:24;25.40;29.90
18287;DHT22;9269;50.838;12.094;2022-07-23T02:59:53;25.40;30.10
18287;DHT22;9269;50.838;12.094;2022-07-23T03:02:21;25.40;30.00
18287;DHT22;9269;50.838;12.094;2022-07-23T03:04:52;25.30;30.00
18287;DHT22;9269;50.838;12.094;2022-07-23T03:07:20;25.30;30.20
18287;DHT22;9269;50.838;12.094;2022-07-23T03:09:49;25.30;29.90
18287;DHT22;9269;50.838;12.094;2022-07-23T03:12:17;25.30;29.80
18287;DHT22;9269;50.838;12.094;2022-07-23T03:14:45;25.30;29.90
18287;DHT22;9269;50.838;12.094;2022-07-23T03:17:13;25.30;30.20
18287;DHT22;9269;50.838;12.094;2022-07-23T03:19:42;25.30;30.10
18287;DHT22;9269;50.838;12.094;2022-07-23T03:22:12;25.20;30.20
18287;DHT22;9269;50.838;12.094;2022-07-23T03:24:40;25.20;30.20
18287;DHT22;9269;50.838;12.094;2022-07-23T03:27:25;25.20;30.20
18287;DHT22;9269;50.838;12.094;2022-07-23T03:29:55;25.10;30.00
18287;DHT22;9269;50.838;12.094;2022-07-23T03:32:24;25.10;30.40
18287;DHT22;9269;50.838;12.094;2022-07-23T03:34:54;25.10;30.20
18287;DHT22;9269;50.838;12.094;2022-07-23T03:37:25;25.00;31.00
18287;DHT22;9269;50.838;12.094;2022-07-23T03:39:54;24.90;31.10
18287;DHT22;9269;50.838;12.094;2022-07-23T03:42:22;25.00;30.70
18287;DHT22;9269;50.838;12.094;2022-07-23T03:44:51;24.90;30.80
18287;DHT22;9269;50.838;12.094;2022-07-23T03:47:19;24.90;30.60
18287;DHT22;9269;50.838;12.094;2022-07-23T03:49:49;24.80;31.10
18287;DHT22;9269;50.838;12.094;2022-07-23T03:52:18;24.90;30.60
18287;DHT22;9269;50.838;12.094;2022-07-23T03:54:48;24.80;30.70
18287;DHT22;9269;50.838;12.094;2022-07-23T03:57:16;24.80;31.00
18287;DHT22;9269;50.838;12.094;2022-07-23T03:59:44;24.90;31.20
18287;DHT22;9269;50.838;12.094;2022-07-23T04:02:13;24.80;31.30
18287;DHT22;9269;50.838;12.094;2022-07-23T04:04:41;24.60;32.00
18287;DHT22;9269;50.838;12.094;2022-07-23T04:07:10;24.50;31.50
18287;DHT22;9269;50.838;12.094;2022-07-23T04:09:38;24.50;32.10
18287;DHT22;9269;50.838;12.094;2022-07-23T04:12:13;24.40;32.20
18287;DHT22;9269;50.838;12.094;2022-07-23T04:14:42;24.50;31.80
18287;DHT22;9269;50.838;12.094;2022-07-23T04:17:10;24.50;32.20
18287;DHT22;9269;50.838;12.094;2022-07-23T04:19:39;24.40;31.80
18287;DHT22;9269;50.838;12.094;2022-07-23T04:22:08;24.30;31.90
18287;DHT22;9269;50.838;12.094;2022-07-23T04:24:37;24.30;31.80
18287;DHT22;9269;50.838;12.094;2022-07-23T04:27:06;24.20;32.20
18287;DHT22;9269;50.838;12.094;2022-07-23T04:29:35;24.20;32.10
18287;DHT22;9269;50.838;12.094;2022-07-23T04:32:04;24.20;32.10
18287;DHT22;9269;50.838;12.094;2022-07-23T04:34:33;24.20;32.20
18287;DHT22;9269;50.838;12.094;2022-07-23T04:37:01;24.10;31.80
18287;DHT22;9269;50.838;12.094;2022-07-23T04:39:30;24.10;32.00
18287;DHT22;9269;50.838;12.094;2022-07-23T04:41:58;24.10;32.00
18287;DHT22;9269;50.838;12.094;2022-07-23T04:44:27;24.10;31.90
18287;DHT22;9269;50.838;12.094;2022-07-23T04:46:56;24.10;31.60
18287;DHT22;9269;50.838;12.094;2022-07-23T04:49:25;24.20;31.60
18287;DHT22;9269;50.838;12.094;2022-07-23T04:51:54;24.20;31.40
18287;DHT22;9269;50.838;12.094;2022-07-23T04:54:22;24.20;31.20
18287;DHT22;9269;50.838;12.094;2022-07-23T04:56:50;24.30;31.30
18287;DHT22;9269;50.838;12.094;2022-07-23T04:59:18;24.30;31.40
18287;DHT22;9269;50.838;12.094;2022-07-23T05:01:47;24.30;31.20
18287;DHT22;9269;50.838;12.094;2022-07-23T05:04:16;24.20;31.00
18287;DHT22;9269;50.838;12.094;2022-07-23T05:06:45;24.30;31.00
18287;DHT22;9269;50.838;12.094;2022-07-23T05:09:13;24.30;30.50
18287;DHT22;9269;50.838;12.094;2022-07-23T05:11:42;24.30;31.30
18287;DHT22;9269;50.838;12.094;2022-07-23T05:14:11;24.40;30.90
18287;DHT22;9269;50.838;12.094;2022-07-23T05:16:40;24.40;30.50
18287;DHT22;9269;50.838;12.094;2022-07-23T05:19:08;24.40;30.60
18287;DHT22;9269;50.838;12.094;2022-07-23T05:21:38;24.40;30.60
18287;DHT22;9269;50.838;12.094;2022-07-23T05:24:06;24.40;30.60
18287;DHT22;9269;50.838;12.094;2022-07-23T05:26:35;24.50;30.30
18287;DHT22;9269;50.838;12.094;2022-07-23T05:29:03;24.40;30.90
18287;DHT22;9269;50.838;12.094;2022-07-23T05:31:32;24.50;30.30
18287;DHT22;9269;50.838;12.094;2022-07-23T05:34:01;24.40;30.20
18287;DHT22;9269;50.838;12.094;2022-07-23T05:36:31;24.50;30.70
18287;DHT22;9269;50.838;12.094;2022-07-23T05:39:00;24.50;30.50
18287;DHT22;9269;50.838;12.094;2022-07-23T05:41:29;24.50;30.00
18287;DHT22;9269;50.838;12.094;2022-07-23T05:43:58;24.50;30.40
18287;DHT22;9269;50.838;12.094;2022-07-23T05:46:26;24.60;30.30
18287;DHT22;9269;50.838;12.094;2022-07-23T05:48:54;24.60;30.00
18287;DHT22;9269;50.838;12.094;2022-07-23T05:51:24;24.60;30.40
18287;DHT22;9269;50.838;12.094;2022-07-23T05:53:52;24.60;30.00
18287;DHT22;9269;50.838;12.094;2022-07-23T05:56:22;24.70;30.10
18287;DHT22;9269;50.838;12.094;2022-07-23T05:58:50;24.70;29.90
18287;DHT22;9269;50.838;12.094;2022-07-23T06:01:18;24.70;30.00
18287;DHT22;9269;50.838;12.094;2022-07-23T06:03:47;24.80;29.70
18287;DHT22;9269;50.838;12.094;2022-07-23T06:06:15;24.90;29.80
18287;DHT22;9269;50.838;12.094;2022-07-23T06:08:43;24.80;29.50
18287;DHT22;9269;50.838;12.094;2022-07-23T06:11:12;24.90;29.80
18287;DHT22;9269;50.838;12.094;2022-07-23T06:13:41;24.90;29.90
18287;DHT22;9269;50.838;12.094;2022-07-23T06:16:10;24.90;29.80
18287;DHT22;9269;50.838;12.094;2022-07-23T06:18:38;25.00;29.80
18287;DHT22;9269;50.838;12.094;2022-07-23T06:21:06;24.90;29.80
18287;DHT22;9269;50.838;12.094;2022-07-23T06:23:55;25.00;29.70
18287;DHT22;9269;50.838;12.094;2022-07-23T06:26:23;25.00;30.00
18287;DHT22;9269;50.838;12.094;2022-07-23T06:28:53;25.10;29.90
18287;DHT22;9269;50.838;12.094;2022-07-23T06:31:22;25.10;29.80
18287;DHT22;9269;50.838;12.094;2022-07-23T06:33:50;25.20;29.40
18287;DHT22;9269;50.838;12.094;2022-07-23T06:36:18;25.30;29.40
18287;DHT22;9269;50.838;12.094;2022-07-23T06:38:46;25.30;29.50
18287;DHT22;9269;50.838;12.094;2022-07-23T06:41:15;25.30;29.60
18287;DHT22;9269;50.838;12.094;2022-07-23T06:43:43;25.30;29.60
18287;DHT22;9269;50.838;12.094;2022-07-23T06:46:13;25.30;29.90
18287;DHT22;9269;50.838;12.094;2022-07-23T06:48:41;25.30;29.70
18287;DHT22;9269;50.838;12.094;2022-07-23T06:51:09;25.40;29.60
18287;DHT22;9269;50.838;12.094;2022-07-23T06:53:38;25.40;30.00
18287;DHT22;9269;50.838;12.094;2022-07-23T06:56:06;25.20;30.30
18287;DHT22;9269;50.838;12.094;2022-07-23T06:58:34;25.20;30.60
18287;DHT22;9269;50.838;12.094;2022-07-23T07:01:03;25.10;30.70
18287;DHT22;9269;50.838;12.094;2022-07-23T07:03:32;25.20;30.80
18287;DHT22;9269;50.838;12.094;2022-07-23T07:06:01;25.20;31.10
18287;DHT22;9269;50.838;12.094;2022-07-23T07:08:30;25.20;30.80
18287;DHT22;9269;50.838;12.094;2022-07-23T07:10:58;25.30;30.50
18287;DHT22;9269;50.838;12.094;2022-07-23T07:13:26;25.50;30.30
18287;DHT22;9269;50.838;12.094;2022-07-23T07:15:54;25.60;30.50
18287;DHT22;9269;50.838;12.094;2022-07-23T07:18:45;25.70;30.00
18287;DHT22;9269;50.838;12.094;2022-07-23T07:21:13;25.90;29.80
18287;DHT22;9269;50.838;12.094;2022-07-23T07:23:42;25.90;29.80
18287;DHT22;9269;50.838;12.094;2022-07-23T07:26:10;26.10;29.50
18287;DHT22;9269;50.838;12.094;2022-07-23T07:28:38;26.10;29.60
18287;DHT22;9269;50.838;12.094;2022-07-23T07:31:06;26.10;29.70
18287;DHT22;9269;50.838;12.094;2022-07-23T07:33:34;26.00;29.40
18287;DHT22;9269;50.838;12.094;2022-07-23T07:36:05;26.00;29.70
18287;DHT22;9269;50.838;12.094;2022-07-23T07:38:33;26.00;29.80
18287;DHT22;9269;50.838;12.094;2022-07-23T07:41:01;25.80;29.50
18287;DHT22;9269;50.838;12.094;2022-07-23T07:43:29;25.90;29.80
18287;DHT22;9269;50.838;12.094;2022-07-23T07:45:58;25.90;29.60
18287;DHT22;9269;50.838;12.094;2022-07-23T07:48:26;25.90;29.70
18287;DHT22;9269;50.838;12.094;2022-07-23T07:50:54;25.90;29.80
18287;DHT22;9269;50.838;12.094;2022-07-23T07:53:25;25.80;29.70
18287;DHT22;9269;50.838;12.094;2022-07-23T07:55:53;25.90;29.80
18287;DHT22;9269;50.838;12.094;2022-07-23T07:58:21;25.90;30.20
18287;DHT22;9269;50.838;12.094;2022-07-23T08:00:50;25.80;30.20
18287;DHT22;9269;50.838;12.094;2022-07-23T08:03:18;25.80;30.10
18287;DHT22;9269;50.838;12.094;2022-07-23T08:05:47;25.80;30.40
18287;DHT22;9269;50.838;12.094;2022-07-23T08:08:15;25.90;30.20
18287;DHT22;9269;50.838;12.094;2022-07-23T08:10:44;26.00;30.70
18287;DHT22;9269;50.838;12.094;2022-07-23T08:13:14;26.00;30.20
18287;DHT22;9269;50.838;12.094;2022-07-23T08:15:43;26.00;30.10
18287;DHT22;9269;50.838;12.094;2022-07-23T08:18:13;26.00;30.10
18287;DHT22;9269;50.838;12.094;2022-07-23T08:20:41;26.10;30.20
18287;DHT22;9269;50.838;12.094;2022-07-23T08:23:09;26.20;29.80
18287;DHT22;9269;50.838;12.094;2022-07-23T08:25:41;26.50;28.90
18287;DHT22;9269;50.838;12.094;2022-07-23T08:28:12;26.70;28.70
18287;DHT22;9269;50.838;12.094;2022-07-23T08:30:42;26.80;28.20
18287;DHT22;9269;50.838;12.094;2022-07-23T08:33:12;26.90;28.10
18287;DHT22;9269;50.838;12.094;2022-07-23T08:36:01;27.10;28.10
18287;DHT22;9269;50.838;12.094;2022-07-23T08:38:32;27.20;27.90
18287;DHT22;9269;50.838;12.094;2022-07-23T08:41:00;27.20;27.50
18287;DHT22;9269;50.838;12.094;2022-07-23T08:43:31;27.30;27.70
18287;DHT22;9269;50.838;12.094;2022-07-23T08:46:00;27.40;27.50
18287;DHT22;9269;50.838;12.094;2022-07-23T08:48:31;27.40;27.20
18287;DHT22;9269;50.838;12.094;2022-07-23T08:51:01;27.50;27.20
18287;DHT22;9269;50.838;12.094;2022-07-23T08:53:32;27.50;26.90
18287;DHT22;9269;50.838;12.094;2022-07-23T08:56:03;27.60;26.80
18287;DHT22;9269;50.838;12.094;2022-07-23T08:58:33;27.60;27.10
18287;DHT22;9269;50.838;12.094;2022-07-23T09:01:01;27.70;27.10
18287;DHT22;9269;50.838;12.094;2022-07-23T09:03:31;27.70;26.80
18287;DHT22;9269;50.838;12.094;2022-07-23T09:06:00;27.90;26.90
18287;DHT22;9269;50.838;12.094;2022-07-23T09:08:36;27.90;26.70
18287;DHT22;9269;50.838;12.094;2022-07-23T09:11:05;28.00;26.60
18287;DHT22;9269;50.838;12.094;2022-07-23T09:13:38;28.00;26.30
18287;DHT22;9269;50.838;12.094;2022-07-23T09:16:10;28.00;26.30
18287;DHT22;9269;50.838;12.094;2022-07-23T09:18:43;28.10;26.40
18287;DHT22;9269;50.838;12.094;2022-07-23T09:21:23;28.00;26.30
18287;DHT22;9269;50.838;12.094;2022-07-23T09:23:55;28.00;26.50
18287;DHT22;9269;50.838;12.094;2022-07-23T09:26:26;27.90;26.10
18287;DHT22;9269;50.838;12.094;2022-07-23T09:29:05;28.00;26.30
18287;DHT22;9269;50.838;12.094;2022-07-23T09:31:43;28.00;26.40
18287;DHT22;9269;50.838;12.094;2022-07-23T09:34:16;28.10;26.20
18287;DHT22;9269;50.838;12.094;2022-07-23T09:36:45;28.10;26.30
18287;DHT22;9269;50.838;12.094;2022-07-23T09:39:15;28.10;26.30
18287;DHT22;9269;50.838;12.094;2022-07-23T09:41:46;28.10;25.90
18287;DHT22;9269;50.838;12.094;2022-07-23T09:44:17;28.20;25.90
18287;DHT22;9269;50.838;12.094;2022-07-23T09:46:58;28.20;26.10
18287;DHT22;9269;50.838;12.094;2022-07-23T09:49:27;28.20;26.00
18287;DHT22;9269;50.838;12.094;2022-07-23T09:51:57;28.20;26.00
18287;DHT22;9269;50.838;12.094;2022-07-23T09:54:31;28.20;25.70
18287;DHT22;9269;50.838;12.094;2022-07-23T09:57:02;28.10;25.90
18287;DHT22;9269;50.838;12.094;2022-07-23T09:59:34;28.10;26.00
18287;DHT22;9269;50.838;12.094;2022-07-23T10:02:05;28.10;26.00
18287;DHT22;9269;50.838;12.094;2022-07-23T10:04:33;28.00;26.00
18287;DHT22;9269;50.838;12.094;2022-07-23T10:07:05;27.90;26.00
18287;DHT22;9269;50.838;12.094;2022-07-23T10:09:35;27.90;26.30
18287;DHT22;9269;50.838;12.094;2022-07-23T10:12:06;27.80;26.90
18287;DHT22;9269;50.838;12.094;2022-07-23T10:14:52;27.70;26.60
18287;DHT22;9269;50.838;12.094;2022-07-23T10:17:20;27.70;27.20
18287;DHT22;9269;50.838;12.094;2022-07-23T10:19:48;27.60;27.60
18287;DHT22;9269;50.838;12.094;2022-07-23T10:22:21;27.60;27.40
18287;DHT22;9269;50.838;12.094;2022-07-23T10:24:56;27.70;27.90
18287;DHT22;9269;50.838;12.094;2022-07-23T10:27:44;27.70;28.00
18287;DHT22;9269;50.838;12.094;2022-07-23T10:30:18;27.70;28.30
18287;DHT22;9269;50.838;12.094;2022-07-23T10:32:56;27.70;28.30
18287;DHT22;9269;50.838;12.094;2022-07-23T10:35:31;27.90;28.50
18287;DHT22;9269;50.838;12.094;2022-07-23T10:38:07;28.10;28.00
18287;DHT22;9269;50.838;12.094;2022-07-23T10:40:52;28.20;28.10
18287;DHT22;9269;50.838;12.094;2022-07-23T10:43:21;28.30;28.00
18287;DHT22;9269;50.838;12.094;2022-07-23T10:45:52;28.40;28.10
18287;DHT22;9269;50.838;12.094;2022-07-23T10:48:22;28.40;28.00
18287;DHT22;9269;50.838;12.094;2022-07-23T10:51:07;28.30;27.60
18287;DHT22;9269;50.838;12.094;2022-07-23T10:53:55;28.50;27.60
18287;DHT22;9269;50.838;12.094;2022-07-23T10:56:48;28.50;27.30
18287;DHT22;9269;50.838;12.094;2022-07-23T10:59:17;28.60;27.30
18287;DHT22;9269;50.838;12.094;2022-07-23T11:01:47;28.90;27.10
18287;DHT22;9269;50.838;12.094;2022-07-23T11:04:16;29.10;26.60
18287;DHT22;9269;50.838;12.094;2022-07-23T11:07:08;29.40;26.40
18287;DHT22;9269;50.838;12.094;2022-07-23T11:09:40;29.50;25.70
18287;DHT22;9269;50.838;12.094;2022-07-23T11:12:34;29.70;25.50
18287;DHT22;9269;50.838;12.094;2022-07-23T11:15:07;30.00;25.30
18287;DHT22;9269;50.838;12.094;2022-07-23T11:17:38;30.00;24.60
18287;DHT22;9269;50.838;12.094;2022-07-23T11:20:15;30.20;24.70
18287;DHT22;9269;50.838;12.094;2022-07-23T11:22:50;30.30;24.30
18287;DHT22;9269;50.838;12.094;2022-07-23T11:25:33;30.30;24.40
18287;DHT22;9269;50.838;12.094;2022-07-23T11:28:14;30.30;24.50
18287;DHT22;9269;50.838;12.094;2022-07-23T11:30:44;30.20;24.40
18287;DHT22;9269;50.838;12.094;2022-07-23T11:33:21;30.10;24.50
18287;DHT22;9269;50.838;12.094;2022-07-23T11:36:00;29.90;24.60
18287;DHT22;9269;50.838;12.094;2022-07-23T11:38:31;29.90;24.90
18287;DHT22;9269;50.838;12.094;2022-07-23T11:41:00;29.70;25.00
18287;DHT22;9269;50.838;12.094;2022-07-23T11:43:28;29.60;25.30
18287;DHT22;9269;50.838;12.094;2022-07-23T11:45:58;29.70;25.30
18287;DHT22;9269;50.838;12.094;2022-07-23T11:48:29;29.90;24.90
18287;DHT22;9269;50.838;12.094;2022-07-23T11:51:07;30.00;24.80
18287;DHT22;9269;50.838;12.094;2022-07-23T11:53:35;30.40;24.50
18287;DHT22;9269;50.838;12.094;2022-07-23T11:56:05;30.40;24.30
18287;DHT22;9269;50.838;12.094;2022-07-23T11:58:33;30.60;24.00
18287;DHT22;9269;50.838;12.094;2022-07-23T12:01:03;30.80;24.00
18287;DHT22;9269;50.838;12.094;2022-07-23T12:03:33;30.90;23.80
18287;DHT22;9269;50.838;12.094;2022-07-23T12:06:02;31.10;23.50
18287;DHT22;9269;50.838;12.094;2022-07-23T12:08:31;31.30;23.40
18287;DHT22;9269;50.838;12.094;2022-07-23T12:10:59;31.50;23.00
18287;DHT22;9269;50.838;12.094;2022-07-23T12:13:27;31.70;22.80
18287;DHT22;9269;50.838;12.094;2022-07-23T12:15:57;31.80;22.80
18287;DHT22;9269;50.838;12.094;2022-07-23T12:18:26;31.90;22.20
18287;DHT22;9269;50.838;12.094;2022-07-23T12:20:57;32.00;21.90
18287;DHT22;9269;50.838;12.094;2022-07-23T12:23:32;32.10;21.50
18287;DHT22;9269;50.838;12.094;2022-07-23T12:26:02;32.20;21.40
18287;DHT22;9269;50.838;12.094;2022-07-23T12:28:31;32.30;21.30
18287;DHT22;9269;50.838;12.094;2022-07-23T12:31:00;32.30;21.00
18287;DHT22;9269;50.838;12.094;2022-07-23T12:33:30;32.40;21.20
18287;DHT22;9269;50.838;12.094;2022-07-23T12:36:02;32.60;20.60
18287;DHT22;9269;50.838;12.094;2022-07-23T12:38:37;32.60;20.60
18287;DHT22;9269;50.838;12.094;2022-07-23T12:41:05;32.60;20.30
18287;DHT22;9269;50.838;12.094;2022-07-23T12:43:36;32.60;19.80
18287;DHT22;9269;50.838;12.094;2022-07-23T12:46:06;32.60;20.70
18287;DHT22;9269;50.838;12.094;2022-07-23T12:48:36;32.50;20.40
18287;DHT22;9269;50.838;12.094;2022-07-23T12:51:06;32.30;20.40
18287;DHT22;9269;50.838;12.094;2022-07-23T12:53:38;32.20;20.70
18287;DHT22;9269;50.838;12.094;2022-07-23T12:56:08;32.10;20.90
18287;DHT22;9269;50.838;12.094;2022-07-23T12:58:47;32.00;21.00
18287;DHT22;9269;50.838;12.094;2022-07-23T13:01:28;31.80;21.10
18287;DHT22;9269;50.838;12.094;2022-07-23T13:04:03;31.70;21.60
18287;DHT22;9269;50.838;12.094;2022-07-23T13:06:42;31.60;21.60
18287;DHT22;9269;50.838;12.094;2022-07-23T13:09:13;31.50;22.00
18287;DHT22;9269;50.838;12.094;2022-07-23T13:11:42;31.30;22.10
18287;DHT22;9269;50.838;12.094;2022-07-23T13:14:12;31.30;22.10
18287;DHT22;9269;50.838;12.094;2022-07-23T13:16:41;31.10;22.30
18287;DHT22;9269;50.838;12.094;2022-07-23T13:19:10;31.20;22.30
18287;DHT22;9269;50.838;12.094;2022-07-23T13:21:40;31.20;22.30
18287;DHT22;9269;50.838;12.094;2022-07-23T13:24:11;31.10;22.80
18287;DHT22;9269;50.838;12.094;2022-07-23T13:26:40;31.10;22.80
18287;DHT22;9269;50.838;12.094;2022-07-23T13:29:09;31.30;22.70
18287;DHT22;9269;50.838;12.094;2022-07-23T13:31:38;31.30;22.70
18287;DHT22;9269;50.838;12.094;2022-07-23T13:34:07;31.30;22.90
18287;DHT22;9269;50.838;12.094;2022-07-23T13:36:36;31.30;22.60
18287;DHT22;9269;50.838;12.094;2022-07-23T13:39:06;31.40;22.60
18287;DHT22;9269;50.838;12.094;2022-07-23T13:41:36;31.50;22.60
18287;DHT22;9269;50.838;12.094;2022-07-23T13:44:05;31.60;22.40
18287;DHT22;9269;50.838;12.094;2022-07-23T13:46:53;31.70;22.20
18287;DHT22;9269;50.838;12.094;2022-07-23T13:49:21;31.80;22.20
18287;DHT22;9269;50.838;12.094;2022-07-23T13:51:50;31.70;22.30
18287;DHT22;9269;50.838;12.094;2022-07-23T13:54:21;31.70;22.20
18287;DHT22;9269;50.838;12.094;2022-07-23T13:56:50;31.80;22.00
18287;DHT22;9269;50.838;12.094;2022-07-23T13:59:18;31.90;22.00
18287;DHT22;9269;50.838;12.094;2022-07-23T14:01:47;31.90;21.60
18287;DHT22;9269;50.838;12.094;2022-07-23T14:04:36;31.90;21.50
18287;DHT22;9269;50.838;12.094;2022-07-23T14:07:04;31.90;21.70
18287;DHT22;9269;50.838;12.094;2022-07-23T14:09:34;32.00;21.40
18287;DHT22;9269;50.838;12.094;2022-07-23T14:12:03;32.10;21.10
18287;DHT22;9269;50.838;12.094;2022-07-23T14:14:31;32.10;21.30
18287;DHT22;9269;50.838;12.094;2022-07-23T14:17:03;32.20;21.50
18287;DHT22;9269;50.838;12.094;2022-07-23T14:19:34;32.10;21.40
18287;DHT22;9269;50.838;12.094;2022-07-23T14:22:02;32.20;21.30
18287;DHT22;9269;50.838;12.094;2022-07-23T14:24:34;32.10;21.30
18287;DHT22;9269;50.838;12.094;2022-07-23T14:27:04;32.10;21.10
18287;DHT22;9269;50.838;12.094;2022-07-23T14:29:32;32.30;21.20
18287;DHT22;9269;50.838;12.094;2022-07-23T14:32:02;32.20;21.00
18287;DHT22;9269;50.838;12.094;2022-07-23T14:34:33;32.40;20.80
18287;DHT22;9269;50.838;12.094;2022-07-23T14:37:03;32.30;20.60
18287;DHT22;9269;50.838;12.094;2022-07-23T14:39:31;32.40;20.30
18287;DHT22;9269;50.838;12.094;2022-07-23T14:42:01;32.40;20.20
18287;DHT22;9269;50.838;12.094;2022-07-23T14:44:29;32.40;20.30
18287;DHT22;9269;50.838;12.094;2022-07-23T14:46:58;32.40;20.20
18287;DHT22;9269;50.838;12.094;2022-07-23T14:49:27;32.50;19.60
18287;DHT22;9269;50.838;12.094;2022-07-23T14:51:56;32.40;19.60
18287;DHT22;9269;50.838;12.094;2022-07-23T14:54:25;32.20;19.80
18287;DHT22;9269;50.838;12.094;2022-07-23T14:56:56;31.90;20.10
18287;DHT22;9269;50.838;12.094;2022-07-23T14:59:27;31.60;20.80
18287;DHT22;9269;50.838;12.094;2022-07-23T15:01:56;31.50;21.00
18287;DHT22;9269;50.838;12.094;2022-07-23T15:04:24;31.50;20.90
18287;DHT22;9269;50.838;12.094;2022-07-23T15:07:03;31.40;21.10
18287;DHT22;9269;50.838;12.094;2022-07-23T15:09:32;31.40;20.80
18287;DHT22;9269;50.838;12.094;2022-07-23T15:12:02;31.50;20.80
18287;DHT22;9269;50.838;12.094;2022-07-23T15:14:36;31.50;20.70
18287;DHT22;9269;50.838;12.094;2022-07-23T15:17:05;31.60;20.60
18287;DHT22;9269;50.838;12.094;2022-07-23T15:19:33;31.60;20.80
18287;DHT22;9269;50.838;12.094;2022-07-23T15:22:02;31.70;19.90
18287;DHT22;9269;50.838;12.094;2022-07-23T15:24:33;31.70;19.50
18287;DHT22;9269;50.838;12.094;2022-07-23T15:27:01;31.80;19.30
18287;DHT22;9269;50.838;12.094;2022-07-23T15:29:30;31.80;18.10
18287;DHT22;9269;50.838;12.094;2022-07-23T15:32:00;32.00;18.70
18287;DHT22;9269;50.838;12.094;2022-07-23T15:34:29;31.90;18.30
18287;DHT22;9269;50.838;12.094;2022-07-23T15:36:59;31.80;18.30
18287;DHT22;9269;50.838;12.094;2022-07-23T15:39:37;31.90;17.90
18287;DHT22;9269;50.838;12.094;2022-07-23T15:42:05;31.90;18.30
18287;DHT22;9269;50.838;12.094;2022-07-23T15:44:53;32.00;17.70
18287;DHT22;9269;50.838;12.094;2022-07-23T15:47:24;31.90;17.40
18287;DHT22;9269;50.838;12.094;2022-07-23T15:49:52;31.90;18.00